createdAt,value
2017-06-19T00:00:44.894Z,79.20
2017-06-19T00:03:12.331Z,78.60
2017-06-19T00:05:39.774Z,78.60
2017-06-19T00:08:07.211Z,78.10
2017-06-19T00:10:34.655Z,78.10
2017-06-19T00:13:02.102Z,78.20
2017-06-19T00:15:29.554Z,78.00
2017-06-19T00:17:56.995Z,78.80
2017-06-19T00:20:24.437Z,78.40
2017-06-19T00:22:57.615Z,78.70
2017-06-19T00:25:25.046Z,77.60
2017-06-19T00:27:52.495Z,77.90
2017-06-19T00:30:20.703Z,78.50
2017-06-19T00:32:48.138Z,78.40
2017-06-19T00:35:15.583Z,79.70
2017-06-19T00:37:43.802Z,80.40
2017-06-19T00:40:11.240Z,80.30
2017-06-19T00:42:38.689Z,81.20
2017-06-19T00:45:06.123Z,82.50
2017-06-19T00:47:34.339Z,82.30
2017-06-19T00:50:01.783Z,82.20
2017-06-19T00:52:29.218Z,82.20
2017-06-19T00:54:57.427Z,83.00
2017-06-19T00:57:24.875Z,83.00
2017-06-19T00:59:52.314Z,82.90
2017-06-19T01:02:19.751Z,83.90
2017-06-19T01:04:47.967Z,83.20
2017-06-19T01:07:15.402Z,83.20
2017-06-19T01:09:42.846Z,83.00
2017-06-19T01:12:11.058Z,83.00
2017-06-19T01:14:38.509Z,83.00
2017-06-19T01:17:05.950Z,83.90
2017-06-19T01:19:33.394Z,83.90
2017-06-19T01:22:00.830Z,83.50
2017-06-19T01:24:28.283Z,83.70
2017-06-19T01:26:55.722Z,84.00
2017-06-19T01:29:23.167Z,83.90
2017-06-19T01:31:50.617Z,85.80
2017-06-19T01:34:18.055Z,84.20
2017-06-19T01:36:45.511Z,83.60
2017-06-19T01:39:12.950Z,84.00
2017-06-19T01:41:40.396Z,83.70
2017-06-19T01:44:08.599Z,83.80
2017-06-19T01:46:36.055Z,83.70
2017-06-19T01:49:03.490Z,83.10
2017-06-19T01:51:30.935Z,83.70
2017-06-19T01:53:58.379Z,83.90
2017-06-19T01:56:26.595Z,83.70
2017-06-19T01:58:54.039Z,83.60
2017-06-19T02:01:21.478Z,82.70
2017-06-19T02:03:48.923Z,83.80
2017-06-19T02:06:17.138Z,83.80
2017-06-19T02:08:44.574Z,84.00
2017-06-19T02:11:12.023Z,84.60
2017-06-19T02:13:39.474Z,83.60
2017-06-19T02:16:07.679Z,83.80
2017-06-19T02:18:35.135Z,83.80
2017-06-19T02:21:02.579Z,83.60
2017-06-19T02:23:30.023Z,84.80
2017-06-19T02:25:57.462Z,84.70
2017-06-19T02:28:25.679Z,83.70
2017-06-19T02:30:53.123Z,83.70
2017-06-19T02:33:20.579Z,84.10
2017-06-19T02:35:48.019Z,84.00
2017-06-19T02:38:15.467Z,84.00
2017-06-19T02:40:43.674Z,84.40
2017-06-19T02:43:11.118Z,84.20
2017-06-19T02:45:38.582Z,83.90
2017-06-19T02:48:06.019Z,84.30
2017-06-19T02:50:33.478Z,84.00
2017-06-19T02:53:00.914Z,84.70
2017-06-19T02:55:28.371Z,84.30
2017-06-19T02:57:55.815Z,85.00
2017-06-19T03:00:23.254Z,84.90
2017-06-19T03:02:51.458Z,83.90
2017-06-19T03:05:18.919Z,83.80
2017-06-19T03:07:46.360Z,84.30
2017-06-19T03:10:25.670Z,85.10
2017-06-19T03:12:53.879Z,85.40
2017-06-19T03:15:21.336Z,85.40
2017-06-19T03:17:48.791Z,84.90
2017-06-19T03:20:16.227Z,84.40
2017-06-19T03:22:43.671Z,85.80
2017-06-19T03:25:11.879Z,84.70
2017-06-19T03:27:39.331Z,84.70
2017-06-19T03:30:06.787Z,85.30
2017-06-19T03:32:34.244Z,83.30
2017-06-19T03:35:01.690Z,85.80
2017-06-19T03:37:29.127Z,84.30
2017-06-19T03:39:56.567Z,84.10
2017-06-19T03:42:24.792Z,84.20
2017-06-19T03:44:52.244Z,84.10
2017-06-19T03:47:19.718Z,84.10
2017-06-19T03:49:47.159Z,85.20
2017-06-19T03:52:14.614Z,84.70
2017-06-19T03:54:42.071Z,84.00
2017-06-19T03:57:09.524Z,83.80
2017-06-19T03:59:36.983Z,83.10
2017-06-19T04:02:04.425Z,84.60
2017-06-19T04:04:31.867Z,85.20
2017-06-19T04:06:59.306Z,83.80
2017-06-19T04:09:27.523Z,85.30
2017-06-19T04:11:54.972Z,85.20
2017-06-19T04:14:22.410Z,84.80
2017-06-19T04:16:49.856Z,85.30
2017-06-19T04:19:18.070Z,84.60
2017-06-19T04:21:45.523Z,84.60
2017-06-19T04:24:12.962Z,84.40
2017-06-19T04:26:40.406Z,85.10
2017-06-19T04:29:07.843Z,83.90
2017-06-19T04:31:36.063Z,82.70
2017-06-19T04:34:03.514Z,82.70
2017-06-19T04:36:30.976Z,80.60
2017-06-19T04:38:58.418Z,79.00
2017-06-19T04:41:25.863Z,77.70
2017-06-19T04:43:53.304Z,76.60
2017-06-19T04:46:21.523Z,75.60
2017-06-19T04:48:48.971Z,74.70
2017-06-19T04:51:16.439Z,71.00
2017-06-19T04:53:43.884Z,71.00
2017-06-19T04:56:11.341Z,69.20
2017-06-19T04:58:38.780Z,67.20
2017-06-19T05:01:06.231Z,66.40
2017-06-19T05:03:33.670Z,68.10
2017-06-19T05:06:01.885Z,64.20
2017-06-19T05:08:29.342Z,64.10
2017-06-19T05:10:56.786Z,59.60
2017-06-19T05:13:24.239Z,56.40
2017-06-19T05:15:51.670Z,58.40
2017-06-19T05:18:19.118Z,58.60
2017-06-19T05:20:47.331Z,56.30
2017-06-19T05:23:14.771Z,56.10
2017-06-19T05:25:42.210Z,56.70
2017-06-19T05:28:09.658Z,56.40
2017-06-19T05:30:37.876Z,58.00
2017-06-19T05:33:05.310Z,58.00
2017-06-19T05:35:32.755Z,54.30
2017-06-19T05:38:00.962Z,52.70
2017-06-19T05:40:28.419Z,52.70
2017-06-19T05:42:55.869Z,51.30
2017-06-19T05:45:23.326Z,51.40
2017-06-19T05:47:50.767Z,48.60
2017-06-19T05:50:18.218Z,48.90
2017-06-19T05:52:45.655Z,44.90
2017-06-19T05:55:14.055Z,41.20
2017-06-19T05:57:41.501Z,41.20
2017-06-19T06:00:09.722Z,46.90
2017-06-19T06:02:37.167Z,46.80
2017-06-19T06:05:04.607Z,46.70
2017-06-19T06:07:32.054Z,43.70
2017-06-19T06:09:59.490Z,45.10
2017-06-19T06:12:27.703Z,45.00
2017-06-19T06:14:55.155Z,44.40
2017-06-19T06:17:22.599Z,45.50
2017-06-19T06:19:50.072Z,40.70
2017-06-19T06:22:17.506Z,35.70
2017-06-19T06:24:44.946Z,32.60
2017-06-19T06:27:12.395Z,31.00
2017-06-19T06:29:40.609Z,30.10
2017-06-19T06:32:08.075Z,30.10
2017-06-19T06:34:35.515Z,29.60
2017-06-19T06:37:02.958Z,30.00
2017-06-19T06:39:30.411Z,30.50
2017-06-19T06:41:57.862Z,30.20
2017-06-19T06:44:25.313Z,29.50
2017-06-19T06:46:52.769Z,29.50
2017-06-19T06:49:20.982Z,30.00
2017-06-19T06:51:48.423Z,30.00
2017-06-19T06:54:15.907Z,29.40
2017-06-19T06:56:43.362Z,29.00
2017-06-19T06:59:10.809Z,29.00
2017-06-19T07:01:38.250Z,30.80
2017-06-19T07:04:05.699Z,30.00
2017-06-19T07:06:33.147Z,29.40
2017-06-19T07:09:00.591Z,28.70
2017-06-19T07:11:28.809Z,28.50
2017-06-19T07:13:56.246Z,28.40
2017-06-19T07:16:23.693Z,27.70
2017-06-19T07:18:51.131Z,27.40
2017-06-19T07:21:18.582Z,29.20
2017-06-19T07:23:46.795Z,30.00
2017-06-19T07:26:14.256Z,30.00
2017-06-19T07:28:41.692Z,28.50
2017-06-19T07:31:09.139Z,27.60
2017-06-19T07:33:36.586Z,26.80
2017-06-19T07:36:04.822Z,29.50
2017-06-19T07:38:32.271Z,29.50
2017-06-19T07:40:59.717Z,28.90
2017-06-19T07:43:27.169Z,29.10
2017-06-19T07:45:54.607Z,28.60
2017-06-19T07:48:22.055Z,28.80
2017-06-19T07:50:49.500Z,30.20
2017-06-19T07:53:17.711Z,29.80
2017-06-19T07:55:45.151Z,29.70
2017-06-19T07:58:12.606Z,29.30
2017-06-19T08:00:40.055Z,30.20
2017-06-19T08:03:08.063Z,30.00
2017-06-19T08:05:35.505Z,30.00
2017-06-19T08:08:02.959Z,29.70
2017-06-19T08:10:30.409Z,29.50
2017-06-19T08:12:57.851Z,30.00
2017-06-19T08:15:25.311Z,29.50
2017-06-19T08:17:52.787Z,29.20
2017-06-19T08:20:20.234Z,30.70
2017-06-19T08:22:47.671Z,32.20
2017-06-19T08:25:15.122Z,31.90
2017-06-19T08:27:43.332Z,34.00
2017-06-19T08:30:10.783Z,33.90
2017-06-19T08:32:38.232Z,33.80
2017-06-19T08:35:05.695Z,31.80
2017-06-19T08:37:33.151Z,32.00
2017-06-19T08:40:00.607Z,34.20
2017-06-19T08:42:28.054Z,32.00
2017-06-19T08:44:55.499Z,33.30
2017-06-19T08:47:22.942Z,31.70
2017-06-19T08:49:51.171Z,30.60
2017-06-19T08:52:18.619Z,30.50
2017-06-19T08:54:46.064Z,31.60
2017-06-19T08:57:13.520Z,29.20
2017-06-19T08:59:40.960Z,28.30
2017-06-19T09:02:08.405Z,29.70
2017-06-19T09:04:35.843Z,28.90
2017-06-19T09:07:04.059Z,28.90
2017-06-19T09:09:31.503Z,28.90
2017-06-19T09:11:58.960Z,28.90
2017-06-19T09:14:26.402Z,28.20
2017-06-19T09:16:53.852Z,29.20
2017-06-19T09:19:21.296Z,30.90
2017-06-19T09:21:49.513Z,29.10
2017-06-19T09:24:16.968Z,29.10
2017-06-19T09:26:44.428Z,27.90
2017-06-19T09:29:11.880Z,28.20
2017-06-19T09:31:39.323Z,27.40
2017-06-19T09:34:06.775Z,26.90
2017-06-19T09:36:34.221Z,26.60
2017-06-19T09:39:01.667Z,26.20
2017-06-19T09:41:29.883Z,26.70
2017-06-19T09:43:57.336Z,26.70
2017-06-19T09:46:24.778Z,28.40
2017-06-19T09:48:52.250Z,27.80
2017-06-19T09:51:19.703Z,26.00
2017-06-19T09:53:47.147Z,25.90
2017-06-19T09:56:14.591Z,27.40
2017-06-19T09:58:42.034Z,26.00
2017-06-19T10:01:10.249Z,26.90
2017-06-19T10:03:37.704Z,26.90
2017-06-19T10:06:05.159Z,28.00
2017-06-19T10:08:32.603Z,26.40
2017-06-19T10:11:00.055Z,27.00
2017-06-19T10:13:27.495Z,26.30
2017-06-19T10:15:54.951Z,26.40
2017-06-19T10:18:22.398Z,26.30
2017-06-19T10:20:50.611Z,29.50
2017-06-19T10:23:18.073Z,29.40
2017-06-19T10:25:45.511Z,30.10
2017-06-19T10:28:12.962Z,30.10
2017-06-19T10:30:40.407Z,28.00
2017-06-19T10:33:07.854Z,27.80
2017-06-19T10:35:36.067Z,32.70
2017-06-19T10:38:03.522Z,32.70
2017-06-19T10:40:30.966Z,30.60
2017-06-19T10:42:58.416Z,28.10
2017-06-19T10:45:25.859Z,30.90
2017-06-19T10:47:54.087Z,33.00
2017-06-19T10:50:21.535Z,33.00
2017-06-19T10:52:48.981Z,31.60
2017-06-19T10:55:16.434Z,33.60
2017-06-19T10:57:43.891Z,29.40
2017-06-19T11:00:11.344Z,28.90
2017-06-19T11:02:38.796Z,29.50
2017-06-19T11:05:06.252Z,28.90
2017-06-19T11:07:33.687Z,27.80
2017-06-19T11:10:01.139Z,28.20
2017-06-19T11:12:28.583Z,30.00
2017-06-19T11:14:56.798Z,31.40
2017-06-19T11:17:24.254Z,31.30
2017-06-19T11:19:51.714Z,30.60
2017-06-19T11:22:19.162Z,29.30
2017-06-19T11:24:46.626Z,29.90
2017-06-19T11:27:14.078Z,30.70
2017-06-19T11:29:41.511Z,31.00
2017-06-19T11:32:08.955Z,30.00
2017-06-19T11:34:37.218Z,29.70
2017-06-19T11:37:04.674Z,29.60
2017-06-19T11:39:32.116Z,29.50
2017-06-19T11:41:59.562Z,29.80
2017-06-19T11:44:27.014Z,29.50
2017-06-19T11:46:54.471Z,29.10
2017-06-19T11:49:21.935Z,29.80
2017-06-19T11:51:49.383Z,30.70
2017-06-19T11:54:16.826Z,29.30
2017-06-19T11:56:44.298Z,28.30
2017-06-19T11:59:11.744Z,28.20
2017-06-19T12:01:39.190Z,27.50
2017-06-19T12:04:06.647Z,27.90
2017-06-19T12:06:34.098Z,28.20
2017-06-19T12:09:01.543Z,27.80
2017-06-19T12:11:28.991Z,30.10
2017-06-19T12:13:56.443Z,30.50
2017-06-19T12:16:23.887Z,32.60
2017-06-19T12:18:52.110Z,30.10
2017-06-19T12:21:19.551Z,30.00
2017-06-19T12:23:47.007Z,30.20
2017-06-19T12:26:14.453Z,30.70
2017-06-19T12:28:41.951Z,30.10
2017-06-19T12:31:09.395Z,31.40
2017-06-19T12:33:36.834Z,30.70
2017-06-19T12:36:04.291Z,28.40
2017-06-19T12:38:31.737Z,29.10
2017-06-19T12:40:59.196Z,30.30
2017-06-19T12:43:26.635Z,30.30
2017-06-19T12:45:54.084Z,33.40
2017-06-19T12:48:21.522Z,33.60
2017-06-19T12:50:49.766Z,32.10
2017-06-19T12:53:17.213Z,30.70
2017-06-19T12:55:45.436Z,30.00
2017-06-19T12:58:12.887Z,30.00
2017-06-19T13:00:40.359Z,30.90
2017-06-19T13:03:07.802Z,30.60
2017-06-19T13:05:35.246Z,29.40
2017-06-19T13:08:02.702Z,29.20
2017-06-19T13:10:30.166Z,28.50
2017-06-19T13:12:57.615Z,30.00
2017-06-19T13:15:25.082Z,29.50
2017-06-19T13:17:52.559Z,28.30
2017-06-19T13:20:20.054Z,27.90
2017-06-19T13:22:47.495Z,28.80
2017-06-19T13:25:14.939Z,30.00
2017-06-19T13:27:43.155Z,29.40
2017-06-19T13:30:10.614Z,29.40
2017-06-19T13:32:38.057Z,29.90
2017-06-19T13:35:05.506Z,30.80
2017-06-19T13:37:32.946Z,30.60
2017-06-19T13:40:01.159Z,29.70
2017-06-19T13:42:28.599Z,29.70
2017-06-19T13:44:56.042Z,30.60
2017-06-19T13:47:23.480Z,30.20
2017-06-19T13:49:50.936Z,29.60
2017-06-19T13:52:19.155Z,31.80
2017-06-19T13:54:47.303Z,31.80
2017-06-19T13:57:14.749Z,31.80
2017-06-19T13:59:42.959Z,30.50
2017-06-19T14:02:10.418Z,30.40
2017-06-19T14:04:37.866Z,30.00
2017-06-19T14:07:05.323Z,30.30
2017-06-19T14:09:32.768Z,30.40
2017-06-19T14:12:00.215Z,30.50
2017-06-19T14:14:27.651Z,30.60
2017-06-19T14:16:55.867Z,31.80
2017-06-19T14:19:23.324Z,31.70
2017-06-19T14:21:50.781Z,31.90
2017-06-19T14:24:18.227Z,32.10
2017-06-19T14:26:45.702Z,32.40
2017-06-19T14:29:13.147Z,32.60
2017-06-19T14:31:40.649Z,32.90
2017-06-19T14:34:08.103Z,33.20
2017-06-19T14:36:35.570Z,32.90
2017-06-19T14:39:03.779Z,31.20
2017-06-19T14:41:31.223Z,31.00
2017-06-19T14:43:58.672Z,30.50
2017-06-19T14:46:26.231Z,32.50
2017-06-19T14:48:54.439Z,33.20
2017-06-19T14:51:21.885Z,33.20
2017-06-19T14:53:49.326Z,32.80
2017-06-19T14:56:16.767Z,32.70
2017-06-19T14:58:44.978Z,31.60
2017-06-19T15:01:12.419Z,31.60
2017-06-19T15:03:39.859Z,32.10
2017-06-19T15:06:07.307Z,32.90
2017-06-19T15:08:35.518Z,32.30
2017-06-19T15:11:02.968Z,32.20
2017-06-19T15:13:30.407Z,32.00
2017-06-19T15:15:57.851Z,32.90
2017-06-19T15:18:26.062Z,32.00
2017-06-19T15:21:08.399Z,31.90
2017-06-19T15:23:51.487Z,32.20
2017-06-19T15:26:18.946Z,33.60
2017-06-19T15:28:46.415Z,32.00
2017-06-19T15:31:13.860Z,31.60
2017-06-19T15:33:41.317Z,32.60
2017-06-19T15:36:08.771Z,32.00
2017-06-19T15:38:36.211Z,31.30
2017-06-19T15:41:03.652Z,30.60
2017-06-19T15:43:31.099Z,32.00
2017-06-19T15:45:59.310Z,31.40
2017-06-19T15:48:26.749Z,31.30
2017-06-19T15:50:54.190Z,30.20
2017-06-19T15:53:22.403Z,30.40
2017-06-19T15:55:49.854Z,30.30
2017-06-19T15:58:17.311Z,30.40
2017-06-19T16:00:44.751Z,31.70
2017-06-19T16:03:12.195Z,31.10
2017-06-19T16:05:39.631Z,31.00
2017-06-19T16:08:07.852Z,31.20
2017-06-19T16:10:35.442Z,31.20
2017-06-19T16:13:02.903Z,30.50
2017-06-19T16:15:30.355Z,30.80
2017-06-19T16:17:57.798Z,31.20
2017-06-19T16:20:25.251Z,31.20
2017-06-19T16:22:53.167Z,30.40
2017-06-19T16:25:20.612Z,31.30
2017-06-19T16:27:48.055Z,32.20
2017-06-19T16:30:15.515Z,31.60
2017-06-19T16:32:42.970Z,31.70
2017-06-19T16:35:10.414Z,31.30
2017-06-19T16:37:38.627Z,30.90
2017-06-19T16:40:06.079Z,30.90
2017-06-19T16:42:33.522Z,31.60
2017-06-19T16:45:01.007Z,32.10
2017-06-19T16:47:28.451Z,32.10
2017-06-19T16:49:55.902Z,33.00
2017-06-19T16:52:23.363Z,33.40
2017-06-19T16:54:50.819Z,32.30
2017-06-19T16:57:18.275Z,33.00
2017-06-19T16:59:45.711Z,33.40
2017-06-19T17:02:13.165Z,33.70
2017-06-19T17:04:40.611Z,33.70
2017-06-19T17:07:08.067Z,33.60
2017-06-19T17:09:35.512Z,33.30
2017-06-19T17:12:02.950Z,33.30
2017-06-19T17:14:30.390Z,33.00
2017-06-19T17:16:58.614Z,33.30
2017-06-19T17:19:26.055Z,33.20
2017-06-19T17:21:53.490Z,33.50
2017-06-19T17:24:21.699Z,33.60
2017-06-19T17:26:49.153Z,33.60
2017-06-19T17:29:16.950Z,33.40
2017-06-19T17:31:44.391Z,33.60
2017-06-19T17:34:12.615Z,34.60
2017-06-19T17:36:40.559Z,34.60
2017-06-19T17:39:08.292Z,34.20
2017-06-19T17:41:35.743Z,34.20
2017-06-19T17:44:03.218Z,34.50
2017-06-19T17:46:31.432Z,34.60
2017-06-19T17:48:58.886Z,34.50
2017-06-19T17:51:26.331Z,34.50
2017-06-19T17:53:53.799Z,34.70
2017-06-19T17:56:21.242Z,35.10
2017-06-19T17:58:48.683Z,34.50
2017-06-19T18:01:16.147Z,34.60
2017-06-19T18:03:43.586Z,34.50
2017-06-19T18:06:11.799Z,34.70
2017-06-19T18:08:39.252Z,34.70
2017-06-19T18:11:06.708Z,34.90
2017-06-19T18:13:34.177Z,35.20
2017-06-19T18:16:01.631Z,36.40
2017-06-19T18:18:29.079Z,37.30
2017-06-19T18:20:56.535Z,37.30
2017-06-19T18:23:23.978Z,37.40
2017-06-19T18:25:51.426Z,38.10
2017-06-19T18:28:18.870Z,38.50
2017-06-19T18:30:47.083Z,39.40
2017-06-19T18:33:14.531Z,39.30
2017-06-19T18:35:41.991Z,39.80
2017-06-19T18:38:09.444Z,39.80
2017-06-19T18:40:36.875Z,40.40
2017-06-19T18:43:04.331Z,40.00
2017-06-19T18:45:31.776Z,40.10
2017-06-19T18:47:59.986Z,40.60
2017-06-19T18:50:27.422Z,40.50
2017-06-19T18:52:54.870Z,41.20
2017-06-19T18:55:22.315Z,41.50
2017-06-19T18:57:49.767Z,41.50
2017-06-19T19:00:17.227Z,41.40
2017-06-19T19:02:44.679Z,44.70
2017-06-19T19:05:12.119Z,46.00
2017-06-19T19:07:39.567Z,47.20
2017-06-19T19:10:07.012Z,48.00
2017-06-19T19:12:35.238Z,49.70
2017-06-19T19:15:02.675Z,49.70
2017-06-19T19:17:30.119Z,50.40
2017-06-19T19:19:57.571Z,51.20
2017-06-19T19:22:25.011Z,53.60
2017-06-19T19:24:53.231Z,58.30
2017-06-19T19:27:20.678Z,58.20
2017-06-19T19:29:48.130Z,59.30
2017-06-19T19:32:15.579Z,60.40
2017-06-19T19:34:43.022Z,61.50
2017-06-19T19:37:10.490Z,62.80
2017-06-19T19:39:37.933Z,63.50
2017-06-19T19:42:05.382Z,64.30
2017-06-19T19:44:32.827Z,64.80
2017-06-19T19:47:00.299Z,65.30
2017-06-19T19:49:28.519Z,65.90
2017-06-19T19:51:55.959Z,65.70
2017-06-19T19:54:23.411Z,65.90
2017-06-19T19:56:50.848Z,66.40
2017-06-19T19:59:19.073Z,67.50
2017-06-19T20:01:46.527Z,67.40
2017-06-19T20:04:14.007Z,67.90
2017-06-19T20:06:41.450Z,68.00
2017-06-19T20:09:08.913Z,67.20
2017-06-19T20:11:36.351Z,68.30
2017-06-19T20:14:03.800Z,68.70
2017-06-19T20:16:31.239Z,68.90
2017-06-19T20:18:59.199Z,68.80
2017-06-19T20:21:27.408Z,67.10
2017-06-19T20:23:54.848Z,67.10
2017-06-19T20:26:22.296Z,66.40
2017-06-19T20:28:49.735Z,65.40
2017-06-19T20:31:17.946Z,67.40
2017-06-19T20:33:45.396Z,67.30
2017-06-19T20:36:12.840Z,70.00
2017-06-19T20:38:40.289Z,71.90
2017-06-19T20:41:08.516Z,72.20
2017-06-19T20:43:35.962Z,72.00
2017-06-19T20:46:03.416Z,72.40
2017-06-19T20:48:30.880Z,72.50
2017-06-19T20:50:58.327Z,71.30
2017-06-19T20:53:25.774Z,70.20
2017-06-19T20:55:53.227Z,69.60
2017-06-19T20:58:20.685Z,70.20
2017-06-19T21:00:48.127Z,71.20
2017-06-19T21:03:15.576Z,73.00
2017-06-19T21:05:43.019Z,73.50
2017-06-19T21:08:11.234Z,73.70
2017-06-19T21:10:38.679Z,73.60
2017-06-19T21:13:06.150Z,72.80
2017-06-19T21:15:33.592Z,74.30
2017-06-19T21:18:01.051Z,74.60
2017-06-19T21:20:28.498Z,73.70
2017-06-19T21:22:55.939Z,72.80
2017-06-19T21:25:23.395Z,73.60
2017-06-19T21:27:50.858Z,73.30
2017-06-19T21:30:18.298Z,73.70
2017-06-19T21:32:46.502Z,74.60
2017-06-19T21:35:13.959Z,74.60
2017-06-19T21:37:41.406Z,74.00
2017-06-19T21:40:08.846Z,72.90
2017-06-19T21:42:36.287Z,72.20
2017-06-19T21:45:04.502Z,71.40
2017-06-19T21:47:31.957Z,71.30
2017-06-19T21:49:59.412Z,72.90
2017-06-19T21:52:26.842Z,72.60
2017-06-19T21:54:54.286Z,73.30
2017-06-19T21:57:22.498Z,72.50
2017-06-19T21:59:49.952Z,72.40
2017-06-19T22:02:17.391Z,72.60
2017-06-19T22:04:44.835Z,74.70
2017-06-19T22:07:12.290Z,76.90
2017-06-19T22:09:39.732Z,77.50
2017-06-19T22:12:07.954Z,76.40
2017-06-19T22:14:35.403Z,76.30
2017-06-19T22:17:02.879Z,77.30
2017-06-19T22:19:30.326Z,77.00
2017-06-19T22:22:03.351Z,76.20
2017-06-19T22:24:30.794Z,76.30
2017-06-19T22:26:58.240Z,77.20
2017-06-19T22:29:25.695Z,77.50
2017-06-19T22:31:53.128Z,78.30
2017-06-19T22:34:20.583Z,78.90
2017-06-19T22:36:48.026Z,79.40
2017-06-19T22:39:15.473Z,79.10
2017-06-19T22:41:42.932Z,78.20
2017-06-19T22:44:10.370Z,78.20
2017-06-19T22:46:38.586Z,78.30
2017-06-19T22:49:06.088Z,78.20
2017-06-19T22:51:33.538Z,78.70
2017-06-19T22:54:00.986Z,78.80
2017-06-19T22:56:28.427Z,78.40
2017-06-19T22:58:55.875Z,77.60
2017-06-19T23:01:23.319Z,78.60
2017-06-19T23:03:50.778Z,78.20
2017-06-19T23:06:18.219Z,78.10
2017-06-19T23:08:45.666Z,78.00
2017-06-19T23:11:13.108Z,77.80
2017-06-19T23:13:41.319Z,78.00
2017-06-19T23:16:08.758Z,78.00
2017-06-19T23:18:36.210Z,78.50
2017-06-19T23:21:03.655Z,78.70
2017-06-19T23:23:31.205Z,80.00
2017-06-19T23:25:58.767Z,79.50
2017-06-19T23:28:26.206Z,81.20
2017-06-19T23:30:54.426Z,81.50
2017-06-19T23:33:21.871Z,81.50
2017-06-19T23:35:49.315Z,81.60
2017-06-19T23:38:16.758Z,81.50
2017-06-19T23:40:44.970Z,82.00
2017-06-19T23:43:12.410Z,81.90
2017-06-19T23:45:39.856Z,82.30
2017-06-19T23:48:07.295Z,83.20
2017-06-19T23:50:35.512Z,82.00
2017-06-19T23:53:02.955Z,82.00
2017-06-19T23:55:30.398Z,82.80
2017-06-19T23:57:57.843Z,83.50
